sensor_id;sensor_type;location;lat;lon;timestamp;pressure;altitude;pressure_sealevel;temperature;humidity
67803;BME280;54601;51.378;-1.342;2023-01-29T00:00:51;101722.43;;;16.79;28.33
67803;BME280;54601;51.378;-1.342;2023-01-29T00:03:16;101720.05;;;17.23;28.26
67803;BME280;54601;51.378;-1.342;2023-01-29T00:05:42;101716.20;;;16.77;28.33
67803;BME280;54601;51.378;-1.342;2023-01-29T00:08:07;101714.15;;;16.70;28.34
67803;BME280;54601;51.378;-1.342;2023-01-29T00:10:32;101710.33;;;17.21;28.33
67803;BME280;54601;51.378;-1.342;2023-01-29T00:12:58;101701.42;;;16.71;28.32
67803;BME280;54601;51.378;-1.342;2023-01-29T00:15:23;101702.65;;;16.91;28.31
67803;BME280;54601;51.378;-1.342;2023-01-29T00:17:48;101702.69;;;16.65;28.33
67803;BME280;54601;51.378;-1.342;2023-01-29T00:20:13;101701.59;;;17.12;28.29
67803;BME280;54601;51.378;-1.342;2023-01-29T00:22:39;101701.47;;;16.73;28.21
67803;BME280;54601;51.378;-1.342;2023-01-29T00:25:05;101700.46;;;16.78;28.16
67803;BME280;54601;51.378;-1.342;2023-01-29T00:27:29;101700.69;;;17.21;28.15
67803;BME280;54601;51.378;-1.342;2023-01-29T00:29:55;101698.14;;;16.86;28.25
67803;BME280;54601;51.378;-1.342;2023-01-29T00:32:20;101697.05;;;16.82;28.31
67803;BME280;54601;51.378;-1.342;2023-01-29T00:34:45;101697.31;;;16.68;28.22
67803;BME280;54601;51.378;-1.342;2023-01-29T00:37:11;101698.26;;;16.93;28.16
67803;BME280;54601;51.378;-1.342;2023-01-29T00:39:36;101698.63;;;17.06;28.21
67803;BME280;54601;51.378;-1.342;2023-01-29T00:42:01;101696.69;;;16.79;28.29
67803;BME280;54601;51.378;-1.342;2023-01-29T00:44:27;101698.34;;;16.96;28.29
67803;BME280;54601;51.378;-1.342;2023-01-29T00:46:52;101702.37;;;17.01;28.26
67803;BME280;54601;51.378;-1.342;2023-01-29T00:49:17;101701.08;;;16.49;28.28
67803;BME280;54601;51.378;-1.342;2023-01-29T00:51:43;101699.56;;;16.61;28.16
67803;BME280;54601;51.378;-1.342;2023-01-29T00:54:08;101695.21;;;16.73;28.24
67803;BME280;54601;51.378;-1.342;2023-01-29T00:56:35;101694.95;;;16.73;28.25
67803;BME280;54601;51.378;-1.342;2023-01-29T00:58:59;101691.29;;;16.74;28.23
67803;BME280;54601;51.378;-1.342;2023-01-29T01:01:24;101687.65;;;16.43;28.31
67803;BME280;54601;51.378;-1.342;2023-01-29T01:03:49;101687.87;;;16.47;28.25
67803;BME280;54601;51.378;-1.342;2023-01-29T01:06:15;101686.80;;;16.92;28.22
67803;BME280;54601;51.378;-1.342;2023-01-29T01:08:40;101691.71;;;16.50;28.21
67803;BME280;54601;51.378;-1.342;2023-01-29T01:11:05;101685.54;;;16.48;28.21
67803;BME280;54601;51.378;-1.342;2023-01-29T01:13:31;101679.03;;;16.92;28.21
67803;BME280;54601;51.378;-1.342;2023-01-29T01:15:56;101672.59;;;16.91;28.20
67803;BME280;54601;51.378;-1.342;2023-01-29T01:18:21;101665.29;;;16.63;28.24
67803;BME280;54601;51.378;-1.342;2023-01-29T01:20:47;101668.66;;;16.64;28.23
67803;BME280;54601;51.378;-1.342;2023-01-29T01:23:12;101667.07;;;16.46;28.18
67803;BME280;54601;51.378;-1.342;2023-01-29T01:25:37;101665.78;;;16.81;28.27
67803;BME280;54601;51.378;-1.342;2023-01-29T01:28:03;101660.65;;;16.59;28.25
67803;BME280;54601;51.378;-1.342;2023-01-29T01:30:28;101658.32;;;16.82;28.24
67803;BME280;54601;51.378;-1.342;2023-01-29T01:32:53;101660.31;;;16.75;28.29
67803;BME280;54601;51.378;-1.342;2023-01-29T01:35:19;101667.21;;;16.71;28.29
67803;BME280;54601;51.378;-1.342;2023-01-29T01:37:44;101667.96;;;16.76;28.28
67803;BME280;54601;51.378;-1.342;2023-01-29T01:40:13;101670.22;;;16.69;28.30
67803;BME280;54601;51.378;-1.342;2023-01-29T01:42:35;101666.22;;;16.53;28.27
67803;BME280;54601;51.378;-1.342;2023-01-29T01:45:02;101655.78;;;16.72;28.27
67803;BME280;54601;51.378;-1.342;2023-01-29T01:47:30;101655.66;;;16.74;28.27
67803;BME280;54601;51.378;-1.342;2023-01-29T01:49:51;101660.59;;;16.71;28.28
67803;BME280;54601;51.378;-1.342;2023-01-29T01:52:16;101665.94;;;16.68;28.31
67803;BME280;54601;51.378;-1.342;2023-01-29T01:54:42;101666.13;;;16.69;28.28
67803;BME280;54601;51.378;-1.342;2023-01-29T01:57:10;101668.31;;;16.27;28.26
67803;BME280;54601;51.378;-1.342;2023-01-29T01:59:33;101674.09;;;16.72;28.23
67803;BME280;54601;51.378;-1.342;2023-01-29T02:01:57;101670.89;;;16.25;28.24
67803;BME280;54601;51.378;-1.342;2023-01-29T02:04:24;101672.89;;;16.46;28.26
67803;BME280;54601;51.378;-1.342;2023-01-29T02:06:48;101673.58;;;16.43;28.28
67803;BME280;54601;51.378;-1.342;2023-01-29T02:09:18;101670.11;;;16.67;28.26
67803;BME280;54601;51.378;-1.342;2023-01-29T02:11:39;101671.15;;;16.46;28.25
67803;BME280;54601;51.378;-1.342;2023-01-29T02:14:04;101671.79;;;16.41;28.27
67803;BME280;54601;51.378;-1.342;2023-01-29T02:16:29;101669.14;;;16.40;28.26
67803;BME280;54601;51.378;-1.342;2023-01-29T02:18:55;101671.29;;;16.45;28.22
67803;BME280;54601;51.378;-1.342;2023-01-29T02:21:35;101674.44;;;16.66;28.20
67803;BME280;54601;51.378;-1.342;2023-01-29T02:23:55;101675.63;;;16.58;28.29
67803;BME280;54601;51.378;-1.342;2023-01-29T02:26:23;101675.33;;;16.16;28.25
67803;BME280;54601;51.378;-1.342;2023-01-29T02:28:39;101669.68;;;16.32;28.31
67803;BME280;54601;51.378;-1.342;2023-01-29T02:31:07;101665.78;;;16.34;28.28
67803;BME280;54601;51.378;-1.342;2023-01-29T02:33:34;101667.64;;;16.34;28.27
67803;BME280;54601;51.378;-1.342;2023-01-29T02:35:57;101666.86;;;16.62;28.21
67803;BME280;54601;51.378;-1.342;2023-01-29T02:38:22;101664.48;;;16.58;28.22
67803;BME280;54601;51.378;-1.342;2023-01-29T02:40:45;101661.26;;;16.14;28.21
67803;BME280;54601;51.378;-1.342;2023-01-29T02:43:15;101662.08;;;16.56;28.21
67803;BME280;54601;51.378;-1.342;2023-01-29T02:45:42;101663.88;;;16.56;28.22
67803;BME280;54601;51.378;-1.342;2023-01-29T02:48:00;101662.45;;;16.54;28.23
67803;BME280;54601;51.378;-1.342;2023-01-29T02:50:29;101662.68;;;16.57;28.17
67803;BME280;54601;51.378;-1.342;2023-01-29T02:52:57;101663.00;;;16.32;28.19
67803;BME280;54601;51.378;-1.342;2023-01-29T02:55:18;101656.65;;;16.48;28.23
67803;BME280;54601;51.378;-1.342;2023-01-29T02:57:43;101654.77;;;16.25;28.23
67803;BME280;54601;51.378;-1.342;2023-01-29T03:00:10;101652.36;;;16.26;28.21
67803;BME280;54601;51.378;-1.342;2023-01-29T03:02:36;101647.97;;;16.55;28.15
67803;BME280;54601;51.378;-1.342;2023-01-29T03:05:00;101640.36;;;16.33;28.13
67803;BME280;54601;51.378;-1.342;2023-01-29T03:07:25;101639.87;;;16.55;28.14
67803;BME280;54601;51.378;-1.342;2023-01-29T03:09:50;101632.91;;;16.52;28.15
67803;BME280;54601;51.378;-1.342;2023-01-29T03:12:18;101630.04;;;16.50;28.15
67803;BME280;54601;51.378;-1.342;2023-01-29T03:14:39;101630.66;;;16.48;28.15
67803;BME280;54601;51.378;-1.342;2023-01-29T03:17:05;101626.69;;;16.23;28.17
67803;BME280;54601;51.378;-1.342;2023-01-29T03:19:34;101623.32;;;16.01;28.15
67803;BME280;54601;51.378;-1.342;2023-01-29T03:21:56;101619.72;;;16.40;28.19
67803;BME280;54601;51.378;-1.342;2023-01-29T03:24:24;101614.29;;;16.44;28.14
67803;BME280;54601;51.378;-1.342;2023-01-29T03:26:45;101607.86;;;16.46;28.10
67803;BME280;54601;51.378;-1.342;2023-01-29T03:29:11;101600.94;;;16.17;28.18
67803;BME280;54601;51.378;-1.342;2023-01-29T03:31:36;101599.08;;;16.39;28.16
67803;BME280;54601;51.378;-1.342;2023-01-29T03:34:06;101594.07;;;16.40;28.16
67803;BME280;54601;51.378;-1.342;2023-01-29T03:36:30;101588.61;;;16.35;28.18
67803;BME280;54601;51.378;-1.342;2023-01-29T03:38:51;101587.28;;;16.13;28.18
67803;BME280;54601;51.378;-1.342;2023-01-29T03:41:22;101590.26;;;16.04;28.24
67803;BME280;54601;51.378;-1.342;2023-01-29T03:43:49;101591.83;;;16.32;28.19
67803;BME280;54601;51.378;-1.342;2023-01-29T03:46:10;101594.89;;;16.40;28.11
67803;BME280;54601;51.378;-1.342;2023-01-29T03:48:35;101591.58;;;16.37;28.13
67803;BME280;54601;51.378;-1.342;2023-01-29T03:51:04;101584.23;;;16.33;28.14
67803;BME280;54601;51.378;-1.342;2023-01-29T03:53:28;101584.94;;;16.35;28.12
67803;BME280;54601;51.378;-1.342;2023-01-29T03:55:54;101581.82;;;16.14;28.06
67803;BME280;54601;51.378;-1.342;2023-01-29T03:58:19;101583.09;;;16.36;28.08
67803;BME280;54601;51.378;-1.342;2023-01-29T04:00:44;101581.96;;;16.01;28.20
67803;BME280;54601;51.378;-1.342;2023-01-29T04:03:08;101582.52;;;16.30;28.10
67803;BME280;54601;51.378;-1.342;2023-01-29T04:05:34;101577.24;;;16.31;28.08
67803;BME280;54601;51.378;-1.342;2023-01-29T04:08:01;101575.25;;;16.23;28.15
67803;BME280;54601;51.378;-1.342;2023-01-29T04:10:24;101576.87;;;16.24;28.13
67803;BME280;54601;51.378;-1.342;2023-01-29T04:12:49;101574.50;;;16.26;28.10
67803;BME280;54601;51.378;-1.342;2023-01-29T04:15:13;101568.08;;;16.05;28.08
67803;BME280;54601;51.378;-1.342;2023-01-29T04:17:39;101569.62;;;16.24;28.10
67803;BME280;54601;51.378;-1.342;2023-01-29T04:20:03;101567.74;;;16.29;28.03
67803;BME280;54601;51.378;-1.342;2023-01-29T04:22:31;101563.62;;;16.01;28.06
67803;BME280;54601;51.378;-1.342;2023-01-29T04:24:53;101563.10;;;16.23;28.06
67803;BME280;54601;51.378;-1.342;2023-01-29T04:27:25;101558.66;;;16.27;27.99
67803;BME280;54601;51.378;-1.342;2023-01-29T04:29:51;101557.01;;;16.25;28.00
67803;BME280;54601;51.378;-1.342;2023-01-29T04:32:14;101556.80;;;16.24;28.01
67803;BME280;54601;51.378;-1.342;2023-01-29T04:34:40;101557.45;;;16.27;27.93
67803;BME280;54601;51.378;-1.342;2023-01-29T04:37:04;101558.16;;;16.00;27.99
67803;BME280;54601;51.378;-1.342;2023-01-29T04:39:30;101561.94;;;16.19;28.00
67803;BME280;54601;51.378;-1.342;2023-01-29T04:41:53;101561.25;;;15.74;27.99
67803;BME280;54601;51.378;-1.342;2023-01-29T04:44:19;101558.83;;;16.20;27.94
67803;BME280;54601;51.378;-1.342;2023-01-29T04:46:46;101553.87;;;16.11;28.03
67803;BME280;54601;51.378;-1.342;2023-01-29T04:49:15;101556.61;;;16.14;28.00
67803;BME280;54601;51.378;-1.342;2023-01-29T04:51:37;101554.72;;;15.66;28.02
67803;BME280;54601;51.378;-1.342;2023-01-29T04:53:59;101552.84;;;16.16;27.96
67803;BME280;54601;51.378;-1.342;2023-01-29T04:56:25;101555.93;;;16.14;27.96
67803;BME280;54601;51.378;-1.342;2023-01-29T04:58:50;101554.62;;;16.17;27.94
67803;BME280;54601;51.378;-1.342;2023-01-29T05:01:15;101551.29;;;16.14;27.96
67803;BME280;54601;51.378;-1.342;2023-01-29T05:03:41;101551.31;;;15.90;27.98
67803;BME280;54601;51.378;-1.342;2023-01-29T05:06:04;101551.13;;;16.18;27.90
67803;BME280;54601;51.378;-1.342;2023-01-29T05:08:29;101548.02;;;16.32;28.03
67803;BME280;54601;51.378;-1.342;2023-01-29T05:10:56;101546.09;;;16.13;27.94
67803;BME280;54601;51.378;-1.342;2023-01-29T05:13:20;101541.64;;;16.07;28.01
67803;BME280;54601;51.378;-1.342;2023-01-29T05:15:48;101536.85;;;16.10;27.97
67803;BME280;54601;51.378;-1.342;2023-01-29T05:18:10;101526.11;;;16.17;27.89
67803;BME280;54601;51.378;-1.342;2023-01-29T05:20:37;101524.63;;;16.45;27.87
67803;BME280;54601;51.378;-1.342;2023-01-29T05:23:01;101518.28;;;16.06;28.01
67803;BME280;54601;51.378;-1.342;2023-01-29T05:25:29;101513.93;;;16.29;28.02
67803;BME280;54601;51.378;-1.342;2023-01-29T05:27:52;101511.71;;;16.03;28.01
67803;BME280;54601;51.378;-1.342;2023-01-29T05:30:17;101510.59;;;16.02;28.02
67803;BME280;54601;51.378;-1.342;2023-01-29T05:32:42;101516.16;;;15.97;28.06
67803;BME280;54601;51.378;-1.342;2023-01-29T05:35:08;101514.29;;;16.00;28.03
67803;BME280;54601;51.378;-1.342;2023-01-29T05:37:33;101508.01;;;15.98;28.06
67803;BME280;54601;51.378;-1.342;2023-01-29T05:39:59;101505.58;;;15.95;28.09
67803;BME280;54601;51.378;-1.342;2023-01-29T05:42:24;101503.32;;;15.98;28.06
67803;BME280;54601;51.378;-1.342;2023-01-29T05:44:49;101503.40;;;16.27;28.04
67803;BME280;54601;51.378;-1.342;2023-01-29T05:47:18;101503.90;;;16.03;28.02
67803;BME280;54601;51.378;-1.342;2023-01-29T05:49:40;101502.74;;;15.95;28.08
67803;BME280;54601;51.378;-1.342;2023-01-29T05:52:05;101501.90;;;15.98;28.08
67803;BME280;54601;51.378;-1.342;2023-01-29T05:54:31;101498.03;;;16.16;28.19
67803;BME280;54601;51.378;-1.342;2023-01-29T05:56:56;101495.90;;;15.94;28.15
67803;BME280;54601;51.378;-1.342;2023-01-29T05:59:22;101496.72;;;15.92;28.17
67803;BME280;54601;51.378;-1.342;2023-01-29T06:01:47;101490.11;;;15.92;28.19
67803;BME280;54601;51.378;-1.342;2023-01-29T06:04:12;101489.62;;;15.84;28.27
67803;BME280;54601;51.378;-1.342;2023-01-29T06:06:38;101490.65;;;16.13;28.26
67803;BME280;54601;51.378;-1.342;2023-01-29T06:09:03;101486.85;;;15.87;28.27
67803;BME280;54601;51.378;-1.342;2023-01-29T06:11:29;101481.70;;;15.85;28.30
67803;BME280;54601;51.378;-1.342;2023-01-29T06:13:54;101479.95;;;15.89;28.26
67803;BME280;54601;51.378;-1.342;2023-01-29T06:16:19;101475.39;;;15.83;28.34
67803;BME280;54601;51.378;-1.342;2023-01-29T06:18:45;101469.54;;;15.85;28.33
67803;BME280;54601;51.378;-1.342;2023-01-29T06:21:12;101469.84;;;15.97;28.25
67803;BME280;54601;51.378;-1.342;2023-01-29T06:23:36;101471.42;;;15.90;28.32
67803;BME280;54601;51.378;-1.342;2023-01-29T06:26:02;101469.42;;;15.95;28.26
67803;BME280;54601;51.378;-1.342;2023-01-29T06:28:27;101466.11;;;15.88;28.36
67803;BME280;54601;51.378;-1.342;2023-01-29T06:30:52;101465.11;;;15.84;28.42
67803;BME280;54601;51.378;-1.342;2023-01-29T06:33:17;101461.37;;;15.88;28.40
67803;BME280;54601;51.378;-1.342;2023-01-29T06:35:42;101465.98;;;15.86;28.45
67803;BME280;54601;51.378;-1.342;2023-01-29T06:38:08;101465.38;;;15.92;28.41
67803;BME280;54601;51.378;-1.342;2023-01-29T06:40:33;101462.28;;;15.63;28.49
67803;BME280;54601;51.378;-1.342;2023-01-29T06:42:59;101457.80;;;15.86;28.48
67803;BME280;54601;51.378;-1.342;2023-01-29T06:45:24;101456.27;;;15.89;28.48
67803;BME280;54601;51.378;-1.342;2023-01-29T06:47:49;101457.45;;;15.98;28.40
67803;BME280;54601;51.378;-1.342;2023-01-29T06:50:15;101458.92;;;15.94;28.43
67803;BME280;54601;51.378;-1.342;2023-01-29T06:52:40;101456.27;;;15.93;28.51
67803;BME280;54601;51.378;-1.342;2023-01-29T06:55:06;101459.08;;;16.06;28.39
67803;BME280;54601;51.378;-1.342;2023-01-29T06:57:31;101458.85;;;15.99;28.47
67803;BME280;54601;51.378;-1.342;2023-01-29T06:59:56;101459.55;;;16.21;28.53
67803;BME280;54601;51.378;-1.342;2023-01-29T07:02:22;101463.85;;;15.75;28.52
67803;BME280;54601;51.378;-1.342;2023-01-29T07:04:47;101465.21;;;16.01;28.49
67803;BME280;54601;51.378;-1.342;2023-01-29T07:07:13;101468.47;;;16.14;28.43
67803;BME280;54601;51.378;-1.342;2023-01-29T07:09:39;101469.58;;;16.10;28.49
67803;BME280;54601;51.378;-1.342;2023-01-29T07:12:04;101468.70;;;16.20;28.40
67803;BME280;54601;51.378;-1.342;2023-01-29T07:14:29;101468.24;;;16.25;28.35
67803;BME280;54601;51.378;-1.342;2023-01-29T07:16:54;101465.91;;;16.33;28.37
67803;BME280;54601;51.378;-1.342;2023-01-29T07:19:19;101464.30;;;16.31;28.35
67803;BME280;54601;51.378;-1.342;2023-01-29T07:21:45;101461.96;;;16.28;28.43
67803;BME280;54601;51.378;-1.342;2023-01-29T07:24:10;101455.63;;;16.31;28.40
67803;BME280;54601;51.378;-1.342;2023-01-29T07:26:36;101451.82;;;16.32;28.44
67803;BME280;54601;51.378;-1.342;2023-01-29T07:29:01;101451.78;;;16.13;28.44
67803;BME280;54601;51.378;-1.342;2023-01-29T07:31:26;101454.64;;;16.36;28.45
67803;BME280;54601;51.378;-1.342;2023-01-29T07:33:52;101457.18;;;16.39;28.40
67803;BME280;54601;51.378;-1.342;2023-01-29T07:36:17;101460.16;;;16.37;28.45
67803;BME280;54601;51.378;-1.342;2023-01-29T07:38:42;101455.32;;;16.43;28.43
67803;BME280;54601;51.378;-1.342;2023-01-29T07:41:09;101460.80;;;16.35;28.51
67803;BME280;54601;51.378;-1.342;2023-01-29T07:43:33;101458.99;;;16.36;28.48
67803;BME280;54601;51.378;-1.342;2023-01-29T07:46:01;101465.09;;;16.43;28.43
67803;BME280;54601;51.378;-1.342;2023-01-29T07:48:24;101467.84;;;16.13;28.55
67803;BME280;54601;51.378;-1.342;2023-01-29T07:50:54;101465.93;;;16.41;28.48
67803;BME280;54601;51.378;-1.342;2023-01-29T07:53:15;101467.87;;;16.57;28.60
67803;BME280;54601;51.378;-1.342;2023-01-29T07:55:42;101462.48;;;16.31;28.60
67803;BME280;54601;51.378;-1.342;2023-01-29T07:58:05;101460.80;;;16.06;28.62
67803;BME280;54601;51.378;-1.342;2023-01-29T08:00:31;101463.11;;;16.39;28.54
67803;BME280;54601;51.378;-1.342;2023-01-29T08:03:01;101462.29;;;16.20;28.49
67803;BME280;54601;51.378;-1.342;2023-01-29T08:05:21;101457.93;;;16.41;28.52
67803;BME280;54601;51.378;-1.342;2023-01-29T08:07:52;101457.58;;;16.44;28.51
67803;BME280;54601;51.378;-1.342;2023-01-29T08:10:12;101459.44;;;16.63;28.61
67803;BME280;54601;51.378;-1.342;2023-01-29T08:12:37;101450.97;;;16.44;28.53
67803;BME280;54601;51.378;-1.342;2023-01-29T08:15:03;101452.17;;;16.52;28.45
67803;BME280;54601;51.378;-1.342;2023-01-29T08:17:28;101449.86;;;16.59;28.37
67803;BME280;54601;51.378;-1.342;2023-01-29T08:19:54;101446.37;;;16.43;28.53
67803;BME280;54601;51.378;-1.342;2023-01-29T08:22:19;101444.88;;;16.73;28.51
67803;BME280;54601;51.378;-1.342;2023-01-29T08:24:44;101440.27;;;16.48;28.52
67803;BME280;54601;51.378;-1.342;2023-01-29T08:27:09;101437.71;;;16.42;28.33
67803;BME280;54601;51.378;-1.342;2023-01-29T08:29:35;101439.48;;;16.32;28.46
67803;BME280;54601;51.378;-1.342;2023-01-29T08:32:00;101439.63;;;16.44;28.56
67803;BME280;54601;51.378;-1.342;2023-01-29T08:34:25;101441.38;;;16.42;28.61
67803;BME280;54601;51.378;-1.342;2023-01-29T08:36:51;101438.82;;;16.29;28.50
67803;BME280;54601;51.378;-1.342;2023-01-29T08:39:16;101440.09;;;16.28;28.55
67803;BME280;54601;51.378;-1.342;2023-01-29T08:41:42;101440.46;;;16.51;28.58
67803;BME280;54601;51.378;-1.342;2023-01-29T08:44:07;101443.06;;;16.56;28.54
67803;BME280;54601;51.378;-1.342;2023-01-29T08:46:32;101442.71;;;16.55;28.53
67803;BME280;54601;51.378;-1.342;2023-01-29T08:48:58;101439.42;;;16.31;28.52
67803;BME280;54601;51.378;-1.342;2023-01-29T08:51:24;101435.05;;;16.33;28.51
67803;BME280;54601;51.378;-1.342;2023-01-29T08:53:48;101436.44;;;16.61;28.47
67803;BME280;54601;51.378;-1.342;2023-01-29T08:56:14;101440.54;;;16.47;28.61
67803;BME280;54601;51.378;-1.342;2023-01-29T08:58:39;101440.95;;;16.26;28.61
67803;BME280;54601;51.378;-1.342;2023-01-29T09:01:05;101443.71;;;16.69;28.45
67803;BME280;54601;51.378;-1.342;2023-01-29T09:03:30;101444.11;;;16.56;28.53
67803;BME280;54601;51.378;-1.342;2023-01-29T09:05:55;101446.46;;;16.59;28.51
67803;BME280;54601;51.378;-1.342;2023-01-29T09:08:20;101448.01;;;16.49;28.64
67803;BME280;54601;51.378;-1.342;2023-01-29T09:10:46;101447.99;;;16.31;28.61
67803;BME280;54601;51.378;-1.342;2023-01-29T09:13:11;101448.88;;;16.49;28.68
67803;BME280;54601;51.378;-1.342;2023-01-29T09:15:36;101452.01;;;16.26;28.67
67803;BME280;54601;51.378;-1.342;2023-01-29T09:18:02;101451.92;;;16.65;28.50
67803;BME280;54601;51.378;-1.342;2023-01-29T09:20:27;101455.33;;;16.57;28.61
67803;BME280;54601;51.378;-1.342;2023-01-29T09:22:52;101454.30;;;16.32;28.60
67803;BME280;54601;51.378;-1.342;2023-01-29T09:25:18;101453.27;;;16.48;28.71
67803;BME280;54601;51.378;-1.342;2023-01-29T09:27:43;101451.02;;;16.26;28.71
67803;BME280;54601;51.378;-1.342;2023-01-29T09:30:10;101451.88;;;16.56;28.65
67803;BME280;54601;51.378;-1.342;2023-01-29T09:32:34;101449.04;;;16.64;28.54
67803;BME280;54601;51.378;-1.342;2023-01-29T09:34:59;101446.15;;;16.08;28.67
67803;BME280;54601;51.378;-1.342;2023-01-29T09:37:24;101444.75;;;16.52;28.68
67803;BME280;54601;51.378;-1.342;2023-01-29T09:39:50;101440.61;;;16.56;28.68
67803;BME280;54601;51.378;-1.342;2023-01-29T09:42:19;101439.52;;;16.86;28.65
67803;BME280;54601;51.378;-1.342;2023-01-29T09:44:48;101438.65;;;16.61;28.60
67803;BME280;54601;51.378;-1.342;2023-01-29T09:47:10;101433.40;;;16.39;28.84
67803;BME280;54601;51.378;-1.342;2023-01-29T09:49:34;101434.16;;;16.60;28.68
67803;BME280;54601;51.378;-1.342;2023-01-29T09:52:00;101433.32;;;16.47;28.80
67803;BME280;54601;51.378;-1.342;2023-01-29T09:54:24;101431.38;;;16.27;28.78
67803;BME280;54601;51.378;-1.342;2023-01-29T09:56:49;101423.39;;;16.47;28.81
67803;BME280;54601;51.378;-1.342;2023-01-29T09:59:15;101422.32;;;16.28;29.05
67803;BME280;54601;51.378;-1.342;2023-01-29T10:01:46;101424.94;;;16.27;28.86
67803;BME280;54601;51.378;-1.342;2023-01-29T10:06:42;101424.86;;;16.49;28.85
67803;BME280;54601;51.378;-1.342;2023-01-29T10:09:02;101423.74;;;16.50;28.87
67803;BME280;54601;51.378;-1.342;2023-01-29T10:11:28;101424.17;;;16.27;29.14
67803;BME280;54601;51.378;-1.342;2023-01-29T10:13:50;101426.80;;;16.73;28.70
67803;BME280;54601;51.378;-1.342;2023-01-29T10:16:21;101424.68;;;16.61;28.79
67803;BME280;54601;51.378;-1.342;2023-01-29T10:18:48;101421.33;;;16.51;28.90
67803;BME280;54601;51.378;-1.342;2023-01-29T10:21:11;101419.70;;;16.47;28.97
67803;BME280;54601;51.378;-1.342;2023-01-29T10:23:30;101416.80;;;16.87;28.97
67803;BME280;54601;51.378;-1.342;2023-01-29T10:25:52;101423.90;;;16.38;29.92
67803;BME280;54601;51.378;-1.342;2023-01-29T10:28:19;101419.26;;;16.25;29.88
67803;BME280;54601;51.378;-1.342;2023-01-29T10:30:48;101418.33;;;16.47;30.14
67803;BME280;54601;51.378;-1.342;2023-01-29T10:33:15;101415.59;;;16.56;30.50
67803;BME280;54601;51.378;-1.342;2023-01-29T10:35:36;101411.11;;;16.56;30.34
67803;BME280;54601;51.378;-1.342;2023-01-29T10:38:11;101410.77;;;16.55;30.63
67803;BME280;54601;51.378;-1.342;2023-01-29T10:40:31;101407.99;;;16.52;30.57
67803;BME280;54601;51.378;-1.342;2023-01-29T10:42:55;101401.89;;;16.53;30.48
67803;BME280;54601;51.378;-1.342;2023-01-29T10:45:21;101400.50;;;16.74;30.69
67803;BME280;54601;51.378;-1.342;2023-01-29T10:47:49;101402.30;;;16.64;30.64
67803;BME280;54601;51.378;-1.342;2023-01-29T10:50:16;101401.41;;;16.80;30.86
67803;BME280;54601;51.378;-1.342;2023-01-29T10:52:40;101395.25;;;16.39;30.82
67803;BME280;54601;51.378;-1.342;2023-01-29T10:55:04;101391.02;;;16.87;30.75
67803;BME280;54601;51.378;-1.342;2023-01-29T10:57:33;101385.58;;;16.88;30.73
67803;BME280;54601;51.378;-1.342;2023-01-29T10:59:56;101383.44;;;16.60;30.84
67803;BME280;54601;51.378;-1.342;2023-01-29T11:02:14;101381.82;;;16.76;30.50
67803;BME280;54601;51.378;-1.342;2023-01-29T11:04:37;101375.25;;;16.98;30.47
67803;BME280;54601;51.378;-1.342;2023-01-29T11:07:03;101367.51;;;16.81;30.61
67803;BME280;54601;51.378;-1.342;2023-01-29T11:09:33;101364.69;;;16.90;30.08
67803;BME280;54601;51.378;-1.342;2023-01-29T11:11:56;101358.29;;;17.01;30.11
67803;BME280;54601;51.378;-1.342;2023-01-29T11:14:23;101356.15;;;16.98;30.06
67803;BME280;54601;51.378;-1.342;2023-01-29T11:16:46;101351.22;;;16.43;30.18
67803;BME280;54601;51.378;-1.342;2023-01-29T11:19:09;101346.59;;;16.61;30.01
67803;BME280;54601;51.378;-1.342;2023-01-29T11:24:05;101341.35;;;17.00;29.85
67803;BME280;54601;51.378;-1.342;2023-01-29T11:26:25;101336.39;;;17.04;29.91
67803;BME280;54601;51.378;-1.342;2023-01-29T11:28:50;101332.53;;;16.97;30.06
67803;BME280;54601;51.378;-1.342;2023-01-29T11:31:20;101332.78;;;17.00;29.87
67803;BME280;54601;51.378;-1.342;2023-01-29T11:33:41;101330.19;;;17.33;29.70
67803;BME280;54601;51.378;-1.342;2023-01-29T11:38:32;101324.59;;;17.18;29.81
67803;BME280;54601;51.378;-1.342;2023-01-29T11:41:04;101318.83;;;16.90;29.89
67803;BME280;54601;51.378;-1.342;2023-01-29T11:43:28;101315.31;;;16.66;29.91
67803;BME280;54601;51.378;-1.342;2023-01-29T11:45:50;101310.01;;;17.34;29.63
67803;BME280;54601;51.378;-1.342;2023-01-29T11:48:14;101307.23;;;17.01;29.89
67803;BME280;54601;51.378;-1.342;2023-01-29T11:50:38;101310.16;;;16.83;29.86
67803;BME280;54601;51.378;-1.342;2023-01-29T11:53:03;101304.26;;;17.53;29.71
67803;BME280;54601;51.378;-1.342;2023-01-29T11:55:31;101302.23;;;16.81;29.79
67803;BME280;54601;51.378;-1.342;2023-01-29T11:57:59;101300.24;;;17.26;29.70
67803;BME280;54601;51.378;-1.342;2023-01-29T12:00:22;101297.63;;;16.69;29.78
67803;BME280;54601;51.378;-1.342;2023-01-29T12:02:47;101291.07;;;16.73;29.94
67803;BME280;54601;51.378;-1.342;2023-01-29T12:05:14;101287.63;;;17.29;29.66
67803;BME280;54601;51.378;-1.342;2023-01-29T12:07:40;101285.18;;;16.82;29.82
67803;BME280;54601;51.378;-1.342;2023-01-29T12:10:01;101282.53;;;17.21;29.63
67803;BME280;54601;51.378;-1.342;2023-01-29T12:12:29;101279.52;;;16.78;29.74
67803;BME280;54601;51.378;-1.342;2023-01-29T12:15:03;101276.00;;;16.92;29.91
67803;BME280;54601;51.378;-1.342;2023-01-29T12:17:19;101274.40;;;16.91;29.76
67803;BME280;54601;51.378;-1.342;2023-01-29T12:19:46;101268.68;;;17.31;29.63
67803;BME280;54601;51.378;-1.342;2023-01-29T12:22:14;101259.09;;;17.04;29.91
67803;BME280;54601;51.378;-1.342;2023-01-29T12:24:36;101252.58;;;16.94;29.76
67803;BME280;54601;51.378;-1.342;2023-01-29T12:27:06;101246.85;;;17.06;29.68
67803;BME280;54601;51.378;-1.342;2023-01-29T12:29:30;101241.75;;;17.18;29.50
67803;BME280;54601;51.378;-1.342;2023-01-29T12:31:54;101235.65;;;16.82;29.95
67803;BME280;54601;51.378;-1.342;2023-01-29T12:34:17;101236.59;;;16.81;29.87
67803;BME280;54601;51.378;-1.342;2023-01-29T12:36:43;101229.76;;;17.21;29.74